Greenville, Mississippi
Current Conditions -  °F | °C
As of 3:53 AM on Saturday 20 Dec 2014 (Local Time) from KGLH Reporting Station
Few Clouds Few Clouds  
Wind Chill:   Ceiling: Unl
Heat Index:   Visibility: 7mi
Dew Point:   Wind: 6mph
Humidity: 89%   Direction: 30°NNE
Pressure: 30.19"   Gusts: NA
Location:  33.4°N, 91.04°W
Report Text: KGLH 200953Z AUTO 03005KT 7SM FEW080 04/03 A3019 RMK AO2 SLP232 T00440028
Loading
Personal Weather Stations






























Interactive Weather Map New forecast layout! Learn more

10-Day Weather Forecast

Advertisements
Track Severe Weather on mobile